»·PEaware :: N172TT KMHV-KMHV

N172TT :: KMHV-KMHV

FLIGHT INFORMATION

Flight Status: Arrived
Operator: Privately registered:
United States
More flights under this callsign
Pilot: Thomas T. (19955)
Aircraft: CESSNA 172 SKYHAWK
(C172)
More flights by this aircraft type
Origin: KMHV Mojave
United States
Destination: KMHV Mojave
United States
More flights between these airports :: More routes between these airports
Route: +
File this flight plan on PilotEdge
Remarks:
Altitude:
(Current/Filed)
0ft
Speed:
(Current/Filed)
0kts
Departed: 13-Sep-18 12:04 PM
Arrived: 13-Sep-18 12:51 PM
Distance/Time
Traveled:
0nm/0:47
Distance/Time
To Go:
Arrived

Flight Plot

Page will automatically refresh every two minutes.

Flight plan parsing failed; only flown route is shown


Map Options




Map Legend


Flown Route
Filed Route
Departure Airport
Arrival Airport
Navaid (VOR, NDB)
Fix

Horizontal Profiles

Position Reports

Time Latitude Longitude Heading Altitude Ground
Speed
13-Sep-18 11:58 35.057385 -118.149737 50 2760ft 14kts
13-Sep-18 11:59 35.055416 -118.146217 137 2760ft 18kts
13-Sep-18 12:00 35.050793 -118.140599 137 2760ft 24kts
13-Sep-18 12:01 35.045487 -118.134226 139 2760ft 23kts
13-Sep-18 12:02 35.044302 -118.131986 49 2760ft 0kts
13-Sep-18 12:03 35.044302 -118.131986 49 2760ft 0kts
13-Sep-18 12:04 35.044302 -118.131986 49 2760ft 0kts
13-Sep-18 12:05 35.044302 -118.131986 49 2760ft 0kts
13-Sep-18 12:06 35.049646 -118.136530 313 2814ft 72kts
13-Sep-18 12:07 35.069016 -118.149391 34 3598ft 85kts
13-Sep-18 12:08 35.082038 -118.131411 34 4131ft 88kts
13-Sep-18 12:09 35.109704 -118.115628 14 4473ft 121kts
13-Sep-18 12:10 35.141651 -118.100098 13 4899ft 121kts
13-Sep-18 12:11 35.175385 -118.093053 11 5285ft 123kts
13-Sep-18 12:12 35.208937 -118.077223 27 5447ft 137kts
13-Sep-18 12:13 35.242962 -118.055758 32 5549ft 138kts
13-Sep-18 12:14 35.272312 -118.026325 53 5632ft 135kts
13-Sep-18 12:15 35.292328 -117.989412 70 5552ft 129kts
13-Sep-18 12:16 35.306290 -117.949315 65 5456ft 129kts
13-Sep-18 12:17 35.316566 -117.908305 88 5298ft 122kts
13-Sep-18 12:18 35.324582 -117.867198 51 5145ft 133kts
13-Sep-18 12:19 35.348828 -117.872171 251 4833ft 102kts
13-Sep-18 12:20 35.325863 -117.885031 176 4457ft 96kts
13-Sep-18 12:21 35.317639 -117.856749 98 4363ft 67kts
13-Sep-18 12:22 35.317707 -117.835326 57 3897ft 87kts
13-Sep-18 12:23 35.332195 -117.832190 145 4038ft 108kts
13-Sep-18 12:24 35.357374 -117.821576 240 3993ft 104kts
13-Sep-18 12:25 35.363464 -117.807551 337 4148ft 102kts
13-Sep-18 12:26 35.388708 -117.783821 73 3803ft 133kts
13-Sep-18 12:27 35.379294 -117.779464 306 3958ft 115kts
13-Sep-18 12:28 35.399304 -117.805158 207 3772ft 98kts
13-Sep-18 12:29 35.395165 -117.808154 335 3802ft 117kts
13-Sep-18 12:30 35.394074 -117.816537 286 3764ft 103kts
13-Sep-18 12:31 35.394516 -117.823592 262 3742ft 92kts
13-Sep-18 12:32 35.372756 -117.823838 201 3851ft 56kts
13-Sep-18 12:33 35.360809 -117.827229 202 3779ft 61kts
13-Sep-18 12:34 35.349016 -117.831791 201 3896ft 44kts
13-Sep-18 12:35 35.359363 -117.842987 329 2954ft 67kts
13-Sep-18 12:36 35.366189 -117.851005 136 2044ft 50kts
13-Sep-18 12:37 35.356246 -117.838547 162 2334ft 59kts
13-Sep-18 12:38 35.343261 -117.852677 239 3108ft 67kts
13-Sep-18 12:39 35.330070 -117.870756 220 3916ft 68kts
13-Sep-18 12:40 35.311279 -117.888775 215 4362ft 94kts
13-Sep-18 12:41 35.289785 -117.908493 216 4777ft 101kts
13-Sep-18 12:42 35.266649 -117.929597 216 5010ft 108kts
13-Sep-18 12:43 35.241597 -117.952474 216 5008ft 115kts
13-Sep-18 12:44 35.215966 -117.976160 216 5004ft 116kts
13-Sep-18 12:45 35.190422 -117.999944 216 5004ft 117kts
13-Sep-18 12:46 35.164778 -118.024047 216 4998ft 116kts
13-Sep-18 12:47 35.138508 -118.047351 212 4987ft 117kts
13-Sep-18 12:48 35.106404 -118.047337 176 4974ft 119kts
13-Sep-18 12:49 35.073577 -118.043795 194 4965ft 118kts
13-Sep-18 12:50 35.058664 -118.076602 267 4698ft 137kts
13-Sep-18 12:51 35.059387 -118.117258 262 3467ft 99kts
13-Sep-18 12:52 35.059172 -118.140696 264 2819ft 53kts
13-Sep-18 12:53 35.058940 -118.150378 170 2760ft 9kts
13-Sep-18 12:54 35.058585 -118.149941 139 2760ft 0kts

Navigation Log

Ident Type
Flight plan parsing failed, navigation log unavailable